sensor_id;sensor_type;location;lat;lon;timestamp;pressure;altitude;pressure_sealevel;temperature;humidity
35577;BME280;21680;52.400;16.920;2023-02-10T00:00:50;102240.21;;;-1.57;65.39
35577;BME280;21680;52.400;16.920;2023-02-10T00:03:15;102240.89;;;-1.57;65.45
35577;BME280;21680;52.400;16.920;2023-02-10T00:05:41;102244.38;;;-1.58;65.52
35577;BME280;21680;52.400;16.920;2023-02-10T00:08:10;102243.46;;;-1.59;65.46
35577;BME280;21680;52.400;16.920;2023-02-10T00:10:37;102250.10;;;-1.60;65.69
35577;BME280;21680;52.400;16.920;2023-02-10T00:13:02;102255.00;;;-1.60;65.75
35577;BME280;21680;52.400;16.920;2023-02-10T00:15:27;102254.78;;;-1.62;65.59
35577;BME280;21680;52.400;16.920;2023-02-10T00:17:52;102244.06;;;-1.63;65.64
35577;BME280;21680;52.400;16.920;2023-02-10T00:20:18;102238.08;;;-1.64;65.78
35577;BME280;21680;52.400;16.920;2023-02-10T00:22:43;102230.29;;;-1.66;65.65
35577;BME280;21680;52.400;16.920;2023-02-10T00:25:08;102230.58;;;-1.68;65.71
35577;BME280;21680;52.400;16.920;2023-02-10T00:27:33;102230.90;;;-1.69;65.79
35577;BME280;21680;52.400;16.920;2023-02-10T00:29:58;102226.24;;;-1.72;66.02
35577;BME280;21680;52.400;16.920;2023-02-10T00:32:24;102227.22;;;-1.74;66.14
35577;BME280;21680;52.400;16.920;2023-02-10T00:34:49;102229.48;;;-1.75;66.16
35577;BME280;21680;52.400;16.920;2023-02-10T00:37:14;102238.35;;;-1.77;65.99
35577;BME280;21680;52.400;16.920;2023-02-10T00:39:39;102238.45;;;-1.79;66.12
35577;BME280;21680;52.400;16.920;2023-02-10T00:42:04;102235.44;;;-1.80;66.21
35577;BME280;21680;52.400;16.920;2023-02-10T00:44:30;102238.20;;;-1.82;66.31
35577;BME280;21680;52.400;16.920;2023-02-10T00:46:55;102233.44;;;-1.82;66.37
35577;BME280;21680;52.400;16.920;2023-02-10T00:49:20;102231.50;;;-1.83;66.39
35577;BME280;21680;52.400;16.920;2023-02-10T00:51:45;102225.52;;;-1.84;66.38
35577;BME280;21680;52.400;16.920;2023-02-10T00:54:11;102222.13;;;-1.86;66.24
35577;BME280;21680;52.400;16.920;2023-02-10T00:56:36;102226.63;;;-1.87;66.50
35577;BME280;21680;52.400;16.920;2023-02-10T00:59:01;102224.01;;;-1.87;66.69
35577;BME280;21680;52.400;16.920;2023-02-10T01:01:27;102216.95;;;-1.88;66.57
35577;BME280;21680;52.400;16.920;2023-02-10T01:03:52;102215.00;;;-1.89;66.53
35577;BME280;21680;52.400;16.920;2023-02-10T01:06:17;102211.45;;;-1.90;66.74
35577;BME280;21680;52.400;16.920;2023-02-10T01:08:42;102209.11;;;-1.92;66.84
35577;BME280;21680;52.400;16.920;2023-02-10T01:11:09;102212.75;;;-1.93;66.62
35577;BME280;21680;52.400;16.920;2023-02-10T01:13:35;102213.19;;;-1.97;66.70
35577;BME280;21680;52.400;16.920;2023-02-10T01:16:09;102208.45;;;-1.97;66.86
35577;BME280;21680;52.400;16.920;2023-02-10T01:18:35;102208.05;;;-1.98;66.85
35577;BME280;21680;52.400;16.920;2023-02-10T01:21:05;102204.05;;;-1.98;66.90
35577;BME280;21680;52.400;16.920;2023-02-10T01:23:30;102204.16;;;-1.99;67.16
35577;BME280;21680;52.400;16.920;2023-02-10T01:25:55;102202.55;;;-2.00;66.93
35577;BME280;21680;52.400;16.920;2023-02-10T01:28:23;102210.28;;;-2.00;67.22
35577;BME280;21680;52.400;16.920;2023-02-10T01:30:48;102210.67;;;-1.98;67.15
35577;BME280;21680;52.400;16.920;2023-02-10T01:33:14;102207.95;;;-1.96;67.01
35577;BME280;21680;52.400;16.920;2023-02-10T01:35:39;102205.23;;;-1.93;67.22
35577;BME280;21680;52.400;16.920;2023-02-10T01:38:04;102199.90;;;-1.90;67.29
35577;BME280;21680;52.400;16.920;2023-02-10T01:40:29;102198.39;;;-1.88;67.36
35577;BME280;21680;52.400;16.920;2023-02-10T01:42:54;102194.96;;;-1.85;67.55
35577;BME280;21680;52.400;16.920;2023-02-10T01:47:46;102193.54;;;-1.81;67.43
35577;BME280;21680;52.400;16.920;2023-02-10T01:50:12;102191.63;;;-1.80;67.54
35577;BME280;21680;52.400;16.920;2023-02-10T01:52:37;102195.88;;;-1.79;67.74
35577;BME280;21680;52.400;16.920;2023-02-10T01:55:04;102189.97;;;-1.78;67.72
35577;BME280;21680;52.400;16.920;2023-02-10T01:57:30;102193.58;;;-1.75;67.64
35577;BME280;21680;52.400;16.920;2023-02-10T01:59:56;102208.52;;;-1.72;67.72
35577;BME280;21680;52.400;16.920;2023-02-10T02:02:22;102218.73;;;-1.71;67.79
35577;BME280;21680;52.400;16.920;2023-02-10T02:04:49;102216.13;;;-1.70;67.97
35577;BME280;21680;52.400;16.920;2023-02-10T02:07:15;102215.98;;;-1.70;67.69
35577;BME280;21680;52.400;16.920;2023-02-10T02:09:40;102208.12;;;-1.69;68.00
35577;BME280;21680;52.400;16.920;2023-02-10T02:14:52;102207.62;;;-1.68;68.15
35577;BME280;21680;52.400;16.920;2023-02-10T02:17:26;102202.59;;;-1.67;68.08
35577;BME280;21680;52.400;16.920;2023-02-10T02:31:00;102188.73;;;-1.61;68.28
35577;BME280;21680;52.400;16.920;2023-02-10T02:33:40;102197.19;;;-1.59;68.32
35577;BME280;21680;52.400;16.920;2023-02-10T02:36:13;102200.03;;;-1.58;68.35
35577;BME280;21680;52.400;16.920;2023-02-10T02:38:41;102212.86;;;-1.57;68.52
35577;BME280;21680;52.400;16.920;2023-02-10T02:41:07;102202.52;;;-1.57;68.54
35577;BME280;21680;52.400;16.920;2023-02-10T02:43:33;102205.35;;;-1.56;68.39
35577;BME280;21680;52.400;16.920;2023-02-10T02:46:01;102207.28;;;-1.56;68.58
35577;BME280;21680;52.400;16.920;2023-02-10T02:48:31;102213.11;;;-1.55;68.53
35577;BME280;21680;52.400;16.920;2023-02-10T02:53:34;102219.89;;;-1.51;68.79
35577;BME280;21680;52.400;16.920;2023-02-10T02:58:34;102212.09;;;-1.48;68.87
35577;BME280;21680;52.400;16.920;2023-02-10T03:01:07;102208.66;;;-1.46;68.78
35577;BME280;21680;52.400;16.920;2023-02-10T03:03:35;102205.70;;;-1.45;68.96
35577;BME280;21680;52.400;16.920;2023-02-10T03:06:01;102207.52;;;-1.43;68.77
35577;BME280;21680;52.400;16.920;2023-02-10T03:08:27;102212.50;;;-1.40;68.81
35577;BME280;21680;52.400;16.920;2023-02-10T03:10:53;102212.58;;;-1.38;69.21
35577;BME280;21680;52.400;16.920;2023-02-10T03:13:18;102215.84;;;-1.35;68.95
35577;BME280;21680;52.400;16.920;2023-02-10T03:15:43;102223.48;;;-1.31;69.26
35577;BME280;21680;52.400;16.920;2023-02-10T03:18:08;102226.03;;;-1.28;69.13
35577;BME280;21680;52.400;16.920;2023-02-10T03:20:34;102231.41;;;-1.24;69.03
35577;BME280;21680;52.400;16.920;2023-02-10T03:22:59;102234.88;;;-1.20;69.23
35577;BME280;21680;52.400;16.920;2023-02-10T03:25:24;102235.30;;;-1.17;69.24
35577;BME280;21680;52.400;16.920;2023-02-10T03:27:49;102231.14;;;-1.16;69.33
35577;BME280;21680;52.400;16.920;2023-02-10T03:30:15;102233.66;;;-1.14;69.49
35577;BME280;21680;52.400;16.920;2023-02-10T03:32:40;102233.24;;;-1.10;69.35
35577;BME280;21680;52.400;16.920;2023-02-10T03:35:05;102240.52;;;-1.07;69.45
35577;BME280;21680;52.400;16.920;2023-02-10T03:37:30;102240.98;;;-1.03;69.50
35577;BME280;21680;52.400;16.920;2023-02-10T03:39:56;102238.04;;;-1.02;69.28
35577;BME280;21680;52.400;16.920;2023-02-10T03:42:21;102243.38;;;-1.00;69.37
35577;BME280;21680;52.400;16.920;2023-02-10T03:44:46;102248.36;;;-0.97;69.57
35577;BME280;21680;52.400;16.920;2023-02-10T03:47:11;102245.61;;;-0.95;69.56
35577;BME280;21680;52.400;16.920;2023-02-10T03:49:36;102244.10;;;-0.92;69.49
35577;BME280;21680;52.400;16.920;2023-02-10T03:52:02;102247.10;;;-0.92;69.65
35577;BME280;21680;52.400;16.920;2023-02-10T03:54:27;102252.21;;;-0.91;69.64
35577;BME280;21680;52.400;16.920;2023-02-10T03:56:52;102251.10;;;-0.93;69.63
35577;BME280;21680;52.400;16.920;2023-02-10T03:59:18;102254.78;;;-0.93;69.57
35577;BME280;21680;52.400;16.920;2023-02-10T04:01:43;102257.63;;;-0.92;69.56
35577;BME280;21680;52.400;16.920;2023-02-10T04:04:08;102260.27;;;-0.92;69.56
35577;BME280;21680;52.400;16.920;2023-02-10T04:06:33;102260.95;;;-0.92;69.55
35577;BME280;21680;52.400;16.920;2023-02-10T04:08:58;102259.15;;;-0.94;69.51
35577;BME280;21680;52.400;16.920;2023-02-10T04:11:24;102259.13;;;-0.95;69.48
35577;BME280;21680;52.400;16.920;2023-02-10T04:13:49;102257.45;;;-0.98;69.70
35577;BME280;21680;52.400;16.920;2023-02-10T04:16:15;102264.04;;;-1.01;69.82
35577;BME280;21680;52.400;16.920;2023-02-10T04:18:41;102259.80;;;-1.02;69.74
35577;BME280;21680;52.400;16.920;2023-02-10T04:21:07;102264.31;;;-1.04;69.88
35577;BME280;21680;52.400;16.920;2023-02-10T04:23:33;102262.48;;;-1.06;69.81
35577;BME280;21680;52.400;16.920;2023-02-10T04:25:59;102266.79;;;-1.09;69.92
35577;BME280;21680;52.400;16.920;2023-02-10T04:28:25;102266.36;;;-1.11;70.02
35577;BME280;21680;52.400;16.920;2023-02-10T04:30:51;102269.97;;;-1.14;69.95
35577;BME280;21680;52.400;16.920;2023-02-10T04:33:16;102278.51;;;-1.15;69.98
35577;BME280;21680;52.400;16.920;2023-02-10T04:35:41;102271.64;;;-1.16;69.99
35577;BME280;21680;52.400;16.920;2023-02-10T04:38:09;102264.09;;;-1.16;70.27
35577;BME280;21680;52.400;16.920;2023-02-10T04:40:34;102258.63;;;-1.17;70.16
35577;BME280;21680;52.400;16.920;2023-02-10T04:42:59;102246.54;;;-1.17;70.16
35577;BME280;21680;52.400;16.920;2023-02-10T04:45:25;102243.04;;;-1.17;70.39
35577;BME280;21680;52.400;16.920;2023-02-10T04:47:50;102247.27;;;-1.16;70.29
35577;BME280;21680;52.400;16.920;2023-02-10T04:50:15;102248.96;;;-1.18;70.36
35577;BME280;21680;52.400;16.920;2023-02-10T04:52:40;102249.38;;;-1.21;70.26
35577;BME280;21680;52.400;16.920;2023-02-10T04:55:05;102260.17;;;-1.24;70.54
35577;BME280;21680;52.400;16.920;2023-02-10T04:57:30;102258.46;;;-1.28;70.60
35577;BME280;21680;52.400;16.920;2023-02-10T04:59:56;102258.05;;;-1.31;70.56
35577;BME280;21680;52.400;16.920;2023-02-10T05:02:21;102261.85;;;-1.32;70.63
35577;BME280;21680;52.400;16.920;2023-02-10T05:04:46;102263.58;;;-1.33;70.56
35577;BME280;21680;52.400;16.920;2023-02-10T05:07:11;102265.98;;;-1.35;70.56
35577;BME280;21680;52.400;16.920;2023-02-10T05:09:37;102261.70;;;-1.38;70.98
35577;BME280;21680;52.400;16.920;2023-02-10T05:12:02;102263.31;;;-1.36;71.07
35577;BME280;21680;52.400;16.920;2023-02-10T05:14:27;102254.20;;;-1.36;70.94
35577;BME280;21680;52.400;16.920;2023-02-10T05:16:52;102257.33;;;-1.37;71.21
35577;BME280;21680;52.400;16.920;2023-02-10T05:19:18;102256.17;;;-1.34;71.46
35577;BME280;21680;52.400;16.920;2023-02-10T05:21:43;102254.30;;;-1.33;71.39
35577;BME280;21680;52.400;16.920;2023-02-10T05:24:08;102251.94;;;-1.29;71.62
35577;BME280;21680;52.400;16.920;2023-02-10T05:26:33;102258.02;;;-1.26;71.80
35577;BME280;21680;52.400;16.920;2023-02-10T05:28:58;102261.45;;;-1.22;71.54
35577;BME280;21680;52.400;16.920;2023-02-10T05:31:23;102268.55;;;-1.20;71.62
35577;BME280;21680;52.400;16.920;2023-02-10T05:33:49;102269.49;;;-1.18;71.62
35577;BME280;21680;52.400;16.920;2023-02-10T05:36:14;102274.81;;;-1.16;71.91
35577;BME280;21680;52.400;16.920;2023-02-10T05:38:39;102280.13;;;-1.14;71.92
35577;BME280;21680;52.400;16.920;2023-02-10T05:41:24;102282.65;;;-1.12;72.13
35577;BME280;21680;52.400;16.920;2023-02-10T05:43:49;102279.53;;;-1.11;72.12
35577;BME280;21680;52.400;16.920;2023-02-10T05:46:14;102282.35;;;-1.10;71.96
35577;BME280;21680;52.400;16.920;2023-02-10T05:48:40;102284.34;;;-1.08;72.12
35577;BME280;21680;52.400;16.920;2023-02-10T05:51:05;102281.40;;;-1.07;72.13
35577;BME280;21680;52.400;16.920;2023-02-10T05:53:30;102279.85;;;-1.06;72.02
35577;BME280;21680;52.400;16.920;2023-02-10T05:55:55;102286.21;;;-1.04;72.09
35577;BME280;21680;52.400;16.920;2023-02-10T05:58:20;102286.09;;;-1.03;72.27
35577;BME280;21680;52.400;16.920;2023-02-10T06:00:45;102284.54;;;-1.02;72.40
35577;BME280;21680;52.400;16.920;2023-02-10T06:03:11;102287.58;;;-1.00;72.31
35577;BME280;21680;52.400;16.920;2023-02-10T06:05:36;102282.34;;;-1.00;72.40
35577;BME280;21680;52.400;16.920;2023-02-10T06:08:01;102283.77;;;-0.98;72.54
35577;BME280;21680;52.400;16.920;2023-02-10T06:10:26;102289.58;;;-0.97;72.45
35577;BME280;21680;52.400;16.920;2023-02-10T06:12:51;102287.49;;;-0.97;72.68
35577;BME280;21680;52.400;16.920;2023-02-10T06:15:17;102292.45;;;-0.95;72.80
35577;BME280;21680;52.400;16.920;2023-02-10T06:17:42;102290.91;;;-0.94;72.65
35577;BME280;21680;52.400;16.920;2023-02-10T06:20:08;102286.86;;;-0.94;72.80
35577;BME280;21680;52.400;16.920;2023-02-10T06:22:33;102283.16;;;-0.94;72.86
35577;BME280;21680;52.400;16.920;2023-02-10T06:24:58;102287.16;;;-0.96;72.91
35577;BME280;21680;52.400;16.920;2023-02-10T06:27:24;102295.00;;;-0.98;72.97
35577;BME280;21680;52.400;16.920;2023-02-10T06:29:49;102292.88;;;-0.99;72.86
35577;BME280;21680;52.400;16.920;2023-02-10T06:32:14;102294.27;;;-0.99;73.12
35577;BME280;21680;52.400;16.920;2023-02-10T06:34:39;102299.53;;;-0.99;73.09
35577;BME280;21680;52.400;16.920;2023-02-10T06:37:05;102296.71;;;-1.00;73.06
35577;BME280;21680;52.400;16.920;2023-02-10T06:39:31;102294.08;;;-1.00;73.28
35577;BME280;21680;52.400;16.920;2023-02-10T06:41:56;102293.25;;;-0.98;73.21
35577;BME280;21680;52.400;16.920;2023-02-10T06:44:22;102295.70;;;-0.98;73.16
35577;BME280;21680;52.400;16.920;2023-02-10T06:46:48;102302.77;;;-0.97;73.34
35577;BME280;21680;52.400;16.920;2023-02-10T06:49:13;102305.45;;;-0.94;73.41
35577;BME280;21680;52.400;16.920;2023-02-10T06:51:38;102311.29;;;-0.93;73.43
35577;BME280;21680;52.400;16.920;2023-02-10T06:54:03;102314.58;;;-0.89;73.32
35577;BME280;21680;52.400;16.920;2023-02-10T06:56:28;102318.38;;;-0.85;73.70
35577;BME280;21680;52.400;16.920;2023-02-10T06:58:54;102321.46;;;-0.81;73.67
35577;BME280;21680;52.400;16.920;2023-02-10T07:01:19;102315.08;;;-0.78;73.65
35577;BME280;21680;52.400;16.920;2023-02-10T07:03:44;102319.52;;;-0.76;73.69
35577;BME280;21680;52.400;16.920;2023-02-10T07:06:09;102315.55;;;-0.74;73.63
35577;BME280;21680;52.400;16.920;2023-02-10T07:08:34;102319.81;;;-0.72;73.77
35577;BME280;21680;52.400;16.920;2023-02-10T07:10:59;102321.27;;;-0.71;73.79
35577;BME280;21680;52.400;16.920;2023-02-10T07:13:25;102322.38;;;-0.69;73.87
35577;BME280;21680;52.400;16.920;2023-02-10T07:15:50;102330.50;;;-0.67;74.06
35577;BME280;21680;52.400;16.920;2023-02-10T07:18:16;102335.13;;;-0.65;74.10
35577;BME280;21680;52.400;16.920;2023-02-10T07:20:41;102341.69;;;-0.62;74.07
35577;BME280;21680;52.400;16.920;2023-02-10T07:23:06;102340.70;;;-0.60;74.35
35577;BME280;21680;52.400;16.920;2023-02-10T07:25:31;102344.83;;;-0.57;74.10
35577;BME280;21680;52.400;16.920;2023-02-10T07:27:56;102349.45;;;-0.56;74.34
35577;BME280;21680;52.400;16.920;2023-02-10T07:30:21;102354.06;;;-0.54;74.33
35577;BME280;21680;52.400;16.920;2023-02-10T07:32:47;102357.30;;;-0.51;74.57
35577;BME280;21680;52.400;16.920;2023-02-10T07:35:12;102350.66;;;-0.50;74.43
35577;BME280;21680;52.400;16.920;2023-02-10T07:37:37;102352.14;;;-0.48;74.65
35577;BME280;21680;52.400;16.920;2023-02-10T07:40:03;102351.16;;;-0.45;74.55
35577;BME280;21680;52.400;16.920;2023-02-10T07:42:28;102358.83;;;-0.41;74.57
35577;BME280;21680;52.400;16.920;2023-02-10T07:44:53;102363.65;;;-0.39;74.81
35577;BME280;21680;52.400;16.920;2023-02-10T07:47:19;102368.29;;;-0.36;74.75
35577;BME280;21680;52.400;16.920;2023-02-10T07:49:44;102369.92;;;-0.34;74.98
35577;BME280;21680;52.400;16.920;2023-02-10T07:52:09;102368.77;;;-0.30;74.94
35577;BME280;21680;52.400;16.920;2023-02-10T07:54:34;102375.55;;;-0.27;75.03
35577;BME280;21680;52.400;16.920;2023-02-10T07:57:00;102370.16;;;-0.25;75.12
35577;BME280;21680;52.400;16.920;2023-02-10T07:59:25;102372.21;;;-0.21;75.04
35577;BME280;21680;52.400;16.920;2023-02-10T08:01:51;102370.38;;;-0.18;75.16
35577;BME280;21680;52.400;16.920;2023-02-10T08:04:16;102376.42;;;-0.15;75.36
35577;BME280;21680;52.400;16.920;2023-02-10T08:06:41;102371.45;;;-0.11;75.46
35577;BME280;21680;52.400;16.920;2023-02-10T08:09:06;102362.80;;;-0.06;75.43
35577;BME280;21680;52.400;16.920;2023-02-10T08:11:32;102358.91;;;-0.00;75.48
35577;BME280;21680;52.400;16.920;2023-02-10T08:13:57;102361.16;;;0.06;75.62
35577;BME280;21680;52.400;16.920;2023-02-10T08:16:22;102366.02;;;0.10;75.68
35577;BME280;21680;52.400;16.920;2023-02-10T08:18:48;102369.83;;;0.15;75.72
35577;BME280;21680;52.400;16.920;2023-02-10T08:21:13;102365.77;;;0.20;75.61
35577;BME280;21680;52.400;16.920;2023-02-10T08:23:38;102372.85;;;0.22;75.88
35577;BME280;21680;52.400;16.920;2023-02-10T08:26:08;102381.38;;;0.25;75.83
35577;BME280;21680;52.400;16.920;2023-02-10T08:28:34;102380.34;;;0.26;75.73
35577;BME280;21680;52.400;16.920;2023-02-10T08:31:00;102391.81;;;0.28;75.94
35577;BME280;21680;52.400;16.920;2023-02-10T08:33:26;102393.26;;;0.29;76.01
35577;BME280;21680;52.400;16.920;2023-02-10T08:35:51;102392.77;;;0.30;75.98
35577;BME280;21680;52.400;16.920;2023-02-10T08:38:16;102391.56;;;0.32;75.81
35577;BME280;21680;52.400;16.920;2023-02-10T08:40:41;102394.67;;;0.37;75.99
35577;BME280;21680;52.400;16.920;2023-02-10T08:43:06;102401.80;;;0.40;76.08
35577;BME280;21680;52.400;16.920;2023-02-10T08:45:32;102405.02;;;0.42;76.05
35577;BME280;21680;52.400;16.920;2023-02-10T08:47:57;102406.48;;;0.45;75.90
35577;BME280;21680;52.400;16.920;2023-02-10T08:50:22;102416.19;;;0.45;76.01
35577;BME280;21680;52.400;16.920;2023-02-10T08:52:47;102415.30;;;0.45;76.02
35577;BME280;21680;52.400;16.920;2023-02-10T08:55:13;102404.07;;;0.46;76.05
35577;BME280;21680;52.400;16.920;2023-02-10T08:57:38;102395.19;;;0.49;76.13
35577;BME280;21680;52.400;16.920;2023-02-10T09:00:08;102392.64;;;0.53;76.06
35577;BME280;21680;52.400;16.920;2023-02-10T09:02:33;102397.36;;;0.58;76.11
35577;BME280;21680;52.400;16.920;2023-02-10T09:04:58;102392.91;;;0.63;76.30
35577;BME280;21680;52.400;16.920;2023-02-10T09:07:24;102392.33;;;0.68;76.01
35577;BME280;21680;52.400;16.920;2023-02-10T09:09:49;102383.99;;;0.73;76.13
35577;BME280;21680;52.400;16.920;2023-02-10T09:12:14;102387.97;;;0.77;75.97
35577;BME280;21680;52.400;16.920;2023-02-10T09:14:40;102399.55;;;0.82;76.16
35577;BME280;21680;52.400;16.920;2023-02-10T09:17:05;102405.04;;;0.84;75.97
35577;BME280;21680;52.400;16.920;2023-02-10T09:19:33;102412.34;;;0.87;76.22
35577;BME280;21680;52.400;16.920;2023-02-10T09:21:58;102420.44;;;0.87;76.04
35577;BME280;21680;52.400;16.920;2023-02-10T09:24:24;102423.04;;;0.86;75.93
35577;BME280;21680;52.400;16.920;2023-02-10T09:26:49;102424.29;;;0.87;76.31
35577;BME280;21680;52.400;16.920;2023-02-10T09:29:14;102432.13;;;0.91;76.15
35577;BME280;21680;52.400;16.920;2023-02-10T09:31:40;102431.39;;;0.96;76.31
35577;BME280;21680;52.400;16.920;2023-02-10T09:34:06;102428.88;;;1.02;76.34
35577;BME280;21680;52.400;16.920;2023-02-10T09:36:31;102437.81;;;1.07;76.11
35577;BME280;21680;52.400;16.920;2023-02-10T09:38:56;102437.85;;;1.09;76.27
35577;BME280;21680;52.400;16.920;2023-02-10T09:54:26;102437.70;;;1.03;76.42
35577;BME280;21680;52.400;16.920;2023-02-10T09:56:56;102431.90;;;1.03;76.70
35577;BME280;21680;52.400;16.920;2023-02-10T09:59:23;102419.02;;;1.02;76.79
35577;BME280;21680;52.400;16.920;2023-02-10T10:01:52;102420.98;;;1.10;77.10
35577;BME280;21680;52.400;16.920;2023-02-10T10:04:20;102419.95;;;1.18;76.83
35577;BME280;21680;52.400;16.920;2023-02-10T10:06:50;102424.31;;;1.25;76.99
35577;BME280;21680;52.400;16.920;2023-02-10T10:11:52;102422.80;;;1.28;77.14
35577;BME280;21680;52.400;16.920;2023-02-10T10:14:22;102429.63;;;1.26;76.95
35577;BME280;21680;52.400;16.920;2023-02-10T10:27:03;102433.42;;;1.15;77.07
35577;BME280;21680;52.400;16.920;2023-02-10T10:34:36;102435.56;;;1.23;77.25
35577;BME280;21680;52.400;16.920;2023-02-10T10:37:04;102429.31;;;1.27;77.36
35577;BME280;21680;52.400;16.920;2023-02-10T10:39:35;102419.77;;;1.34;77.34
35577;BME280;21680;52.400;16.920;2023-02-10T10:42:15;102431.80;;;1.37;77.37
35577;BME280;21680;52.400;16.920;2023-02-10T10:44:42;102438.69;;;1.37;77.43
35577;BME280;21680;52.400;16.920;2023-02-10T10:47:16;102432.08;;;1.40;77.31
35577;BME280;21680;52.400;16.920;2023-02-10T10:49:43;102420.91;;;1.45;77.69
35577;BME280;21680;52.400;16.920;2023-02-10T10:52:30;102416.90;;;1.47;77.27
35577;BME280;21680;52.400;16.920;2023-02-10T10:54:58;102423.25;;;1.47;77.62
35577;BME280;21680;52.400;16.920;2023-02-10T10:57:24;102419.59;;;1.49;77.72
35577;BME280;21680;52.400;16.920;2023-02-10T10:59:51;102428.46;;;1.51;77.75
35577;BME280;21680;52.400;16.920;2023-02-10T11:02:19;102423.73;;;1.53;77.54
35577;BME280;21680;52.400;16.920;2023-02-10T11:04:44;102414.92;;;1.52;77.52
35577;BME280;21680;52.400;16.920;2023-02-10T11:07:20;102409.45;;;1.53;77.63
35577;BME280;21680;52.400;16.920;2023-02-10T11:09:51;102412.04;;;1.58;77.82
35577;BME280;21680;52.400;16.920;2023-02-10T11:14:46;102398.18;;;1.69;77.73
35577;BME280;21680;52.400;16.920;2023-02-10T11:17:19;102397.75;;;1.74;77.74
35577;BME280;21680;52.400;16.920;2023-02-10T11:19:53;102404.61;;;1.82;77.94
35577;BME280;21680;52.400;16.920;2023-02-10T11:22:20;102399.08;;;1.87;77.69
35577;BME280;21680;52.400;16.920;2023-02-10T11:24:50;102396.90;;;1.92;77.87
35577;BME280;21680;52.400;16.920;2023-02-10T11:27:15;102406.89;;;1.98;77.85
35577;BME280;21680;52.400;16.920;2023-02-10T11:29:46;102401.15;;;1.94;77.65
35577;BME280;21680;52.400;16.920;2023-02-10T11:32:29;102401.53;;;1.95;77.69
35577;BME280;21680;52.400;16.920;2023-02-10T11:34:56;102406.22;;;2.00;77.82
35577;BME280;21680;52.400;16.920;2023-02-10T11:37:23;102405.13;;;2.07;77.74
35577;BME280;21680;52.400;16.920;2023-02-10T11:39:51;102403.94;;;2.19;77.94
35577;BME280;21680;52.400;16.920;2023-02-10T11:42:20;102402.35;;;2.28;77.78
35577;BME280;21680;52.400;16.920;2023-02-10T11:44:51;102400.26;;;2.29;77.76
35577;BME280;21680;52.400;16.920;2023-02-10T11:47:17;102383.71;;;2.32;77.66
35577;BME280;21680;52.400;16.920;2023-02-10T11:49:46;102376.95;;;2.38;77.82
35577;BME280;21680;52.400;16.920;2023-02-10T11:52:12;102383.96;;;2.45;77.74
35577;BME280;21680;52.400;16.920;2023-02-10T11:54:38;102373.09;;;2.49;77.79
35577;BME280;21680;52.400;16.920;2023-02-10T12:08:23;102382.50;;;2.52;77.53
35577;BME280;21680;52.400;16.920;2023-02-10T12:10:47;102392.16;;;2.49;77.60
35577;BME280;21680;52.400;16.920;2023-02-10T12:13:32;102400.04;;;2.46;77.47
35577;BME280;21680;52.400;16.920;2023-02-10T12:26:08;102398.25;;;2.45;77.54
35577;BME280;21680;52.400;16.920;2023-02-10T12:31:04;102400.48;;;2.63;77.65
35577;BME280;21680;52.400;16.920;2023-02-10T12:41:21;102402.83;;;2.87;77.48
35577;BME280;21680;52.400;16.920;2023-02-10T12:43:59;102394.67;;;2.85;77.27
35577;BME280;21680;52.400;16.920;2023-02-10T12:51:48;102389.89;;;2.84;77.29
35577;BME280;21680;52.400;16.920;2023-02-10T12:56:58;102388.23;;;2.91;77.28
35577;BME280;21680;52.400;16.920;2023-02-10T12:59:27;102391.09;;;2.92;77.40
35577;BME280;21680;52.400;16.920;2023-02-10T13:01:56;102384.94;;;2.94;77.16
35577;BME280;21680;52.400;16.920;2023-02-10T13:04:25;102382.89;;;2.99;77.26
35577;BME280;21680;52.400;16.920;2023-02-10T13:07:01;102385.98;;;3.04;77.19
35577;BME280;21680;52.400;16.920;2023-02-10T13:09:30;102384.48;;;3.10;77.21
35577;BME280;21680;52.400;16.920;2023-02-10T13:12:05;102386.65;;;3.14;77.21
35577;BME280;21680;52.400;16.920;2023-02-10T13:14:33;102386.70;;;3.17;77.18
35577;BME280;21680;52.400;16.920;2023-02-10T13:16:59;102383.39;;;3.20;77.08
35577;BME280;21680;52.400;16.920;2023-02-10T13:19:39;102382.68;;;3.20;76.90
35577;BME280;21680;52.400;16.920;2023-02-10T13:22:13;102384.64;;;3.21;77.04
35577;BME280;21680;52.400;16.920;2023-02-10T13:25:06;102381.45;;;3.20;76.91
35577;BME280;21680;52.400;16.920;2023-02-10T13:32:27;102386.60;;;3.22;76.97
35577;BME280;21680;52.400;16.920;2023-02-10T13:34:56;102385.25;;;3.26;76.95
35577;BME280;21680;52.400;16.920;2023-02-10T13:37:39;102384.95;;;3.30;76.88
35577;BME280;21680;52.400;16.920;2023-02-10T13:43:00;102374.13;;;3.28;76.96
35577;BME280;21680;52.400;16.920;2023-02-10T13:45:27;102372.21;;;3.30;76.92
35577;BME280;21680;52.400;16.920;2023-02-10T13:48:36;102375.09;;;3.33;76.86
35577;BME280;21680;52.400;16.920;2023-02-10T13:50:42;102378.11;;;3.34;76.79
35577;BME280;21680;52.400;16.920;2023-02-10T13:53:26;102376.91;;;3.37;76.85
35577;BME280;21680;52.400;16.920;2023-02-10T13:56:01;102371.81;;;3.38;76.77
35577;BME280;21680;52.400;16.920;2023-02-10T13:58:28;102375.94;;;3.43;76.91
35577;BME280;21680;52.400;16.920;2023-02-10T14:00:55;102375.07;;;3.44;76.83
35577;BME280;21680;52.400;16.920;2023-02-10T14:03:25;102375.95;;;3.44;76.83
35577;BME280;21680;52.400;16.920;2023-02-10T14:08:30;102383.02;;;3.44;76.65
35577;BME280;21680;52.400;16.920;2023-02-10T14:10:57;102378.42;;;3.44;76.76
35577;BME280;21680;52.400;16.920;2023-02-10T14:13:27;102378.61;;;3.45;76.61
35577;BME280;21680;52.400;16.920;2023-02-10T14:15:56;102375.59;;;3.43;76.61
35577;BME280;21680;52.400;16.920;2023-02-10T14:18:22;102376.09;;;3.41;76.47
35577;BME280;21680;52.400;16.920;2023-02-10T14:20:54;102376.94;;;3.39;76.52
35577;BME280;21680;52.400;16.920;2023-02-10T14:23:20;102378.33;;;3.37;76.57
35577;BME280;21680;52.400;16.920;2023-02-10T14:25:53;102379.73;;;3.36;76.63